Portada
METAR-TAF:

METAR-TAF

Aeropuertos :

Mount Pleasant Municipal Airport

Mount Pleasant, Iowa, Estados Unidos

latitud: 40-56-48N, longitud: 091-30-40W, altitud: 224 m

Observación

El informe se hizo hace 34 minutos, a las 13:55 UTC
Viento 4 kt del sur
Temperatura 23°C
Humedad 89%
Presión 1016 hPa
Visibilidad: 16.1 km
Cielo despejado

METAR: KMPZ 141355Z AUTO 18004KT 10SM CLR 23/21 A2999 RMK AO2 P0001

Hora: 09:29 (14:29 UTC)


TAF: falta

Observaciones y pronósticos meteorológicos de más de 4000 aeropuertos (mensajes METAR y TAF).

Los puntos amarillos y rojos representan las estaciones disponibles.

Ponga el ratón en el punto deseado para ver el nombre de la estación.

Haga clic para ver las observaciones y los pronósticos meteorológicos.

Para cambiar el mapa : haga clic en los botones verdes con una cruz de color negro para hacer un zoom, en el botón verde con un guión para alejar o en las flechas verdes para mapas adyacentes.


METAR-TAF: